Main page
METAR-TAF:

METAR-TAF

Airports :

Panama Pacifico, Panama

latitude: 08-55N, longitude: 079-36W, elevation: 16 m

Current weather observation

The report was made 37 minutes ago, at 19:00 UTC
Wind 4 kt from the South
Temperature 29°C
Humidity 84%
Pressure 1009 hPa
Visibility 10 km or more
Scattered clouds at a height of 1600 ft, Towering cumulus.

METAR: MPPA 281900Z 18004KT 9999 SCT016TCU 29/26 Q1009

Time: 14:37 (19:37 UTC)

Forecast

The report was made 2 hours and 37 minutes ago, at 17:00 UTC
Forecast valid from 28 at 18 UTC to 29 at 24 UTC
Wind kt from the North
Visibility 10 km or more
Scattered clouds at a height of 1600 ft
Scattered clouds at a height of 9000 ft
Probability 30%
from 28 at 20 UTC to 28 at 24 UTC
Wind 6 kt from the South
Visibility: 6000 m
Scattered clouds at a height of 1600 ft, Cumulonimbus.
Broken clouds at a height of 8000 ft
rain showers

TAF: MPPA 281700Z 2818/2924 00000KT 9999 SCT016 SCT090 PROB30 2820/2824 18006KT 6000 SHRA SCT016CB BKN080

Weather observations and forecasts of more than 4000 airports (METAR and TAF reports).

The available stations are represented by yellow and red dots on the map.

Hover mouse over dot to see the name of the station.

Then click to see weather observations and forecasts.

To change the map : click on the green buttons with a black cross to zoom in, on the green button with a dash to zoom out, or on the green arrows for adjacent maps.


METAR-TAF: